sensor_id;sensor_type;location;lat;lon;timestamp;P1;durP1;ratioP1;P2;durP2;ratioP2
13244;SDS011;6689;53.400;12.486;2023-02-18T00:01:26;17.50;;;4.15;;
13244;SDS011;6689;53.400;12.486;2023-02-18T00:03:55;17.02;;;2.92;;
13244;SDS011;6689;53.400;12.486;2023-02-18T00:06:24;20.55;;;3.83;;
13244;SDS011;6689;53.400;12.486;2023-02-18T00:08:53;16.27;;;3.83;;
13244;SDS011;6689;53.400;12.486;2023-02-18T00:11:23;15.70;;;3.08;;
13244;SDS011;6689;53.400;12.486;2023-02-18T00:13:51;11.05;;;3.10;;
13244;SDS011;6689;53.400;12.486;2023-02-18T00:16:20;18.38;;;3.60;;
13244;SDS011;6689;53.400;12.486;2023-02-18T00:22:11;16.02;;;4.28;;
13244;SDS011;6689;53.400;12.486;2023-02-18T00:24:39;16.90;;;4.28;;
13244;SDS011;6689;53.400;12.486;2023-02-18T00:27:06;15.35;;;3.30;;
13244;SDS011;6689;53.400;12.486;2023-02-18T00:29:34;16.45;;;3.15;;
13244;SDS011;6689;53.400;12.486;2023-02-18T00:32:01;18.45;;;4.60;;
13244;SDS011;6689;53.400;12.486;2023-02-18T00:34:28;14.05;;;2.95;;
13244;SDS011;6689;53.400;12.486;2023-02-18T00:36:56;20.73;;;4.38;;
13244;SDS011;6689;53.400;12.486;2023-02-18T00:39:25;15.73;;;3.80;;
13244;SDS011;6689;53.400;12.486;2023-02-18T00:41:52;18.05;;;4.18;;
13244;SDS011;6689;53.400;12.486;2023-02-18T00:44:19;20.05;;;3.33;;
13244;SDS011;6689;53.400;12.486;2023-02-18T00:46:47;18.52;;;3.42;;
13244;SDS011;6689;53.400;12.486;2023-02-18T00:49:14;10.25;;;3.30;;
13244;SDS011;6689;53.400;12.486;2023-02-18T00:51:42;13.18;;;2.92;;
13244;SDS011;6689;53.400;12.486;2023-02-18T00:54:09;17.27;;;3.83;;
13244;SDS011;6689;53.400;12.486;2023-02-18T00:56:38;17.02;;;4.35;;
13244;SDS011;6689;53.400;12.486;2023-02-18T00:59:05;13.40;;;3.53;;
13244;SDS011;6689;53.400;12.486;2023-02-18T01:01:32;14.85;;;3.28;;
13244;SDS011;6689;53.400;12.486;2023-02-18T01:03:59;16.80;;;3.80;;
13244;SDS011;6689;53.400;12.486;2023-02-18T01:06:27;24.88;;;3.45;;
13244;SDS011;6689;53.400;12.486;2023-02-18T01:08:55;11.35;;;3.03;;
13244;SDS011;6689;53.400;12.486;2023-02-18T01:11:22;19.58;;;3.90;;
13244;SDS011;6689;53.400;12.486;2023-02-18T01:13:51;13.90;;;4.50;;
13244;SDS011;6689;53.400;12.486;2023-02-18T01:16:19;11.63;;;2.90;;
13244;SDS011;6689;53.400;12.486;2023-02-18T01:18:47;11.70;;;3.00;;
13244;SDS011;6689;53.400;12.486;2023-02-18T01:21:14;13.10;;;3.50;;
13244;SDS011;6689;53.400;12.486;2023-02-18T01:23:42;18.65;;;4.65;;
13244;SDS011;6689;53.400;12.486;2023-02-18T01:26:09;20.77;;;3.17;;
13244;SDS011;6689;53.400;12.486;2023-02-18T01:28:37;20.48;;;4.40;;
13244;SDS011;6689;53.400;12.486;2023-02-18T01:31:07;18.80;;;3.63;;
13244;SDS011;6689;53.400;12.486;2023-02-18T01:33:37;16.92;;;3.25;;
13244;SDS011;6689;53.400;12.486;2023-02-18T01:36:05;15.48;;;3.67;;
13244;SDS011;6689;53.400;12.486;2023-02-18T01:38:33;20.23;;;3.13;;
13244;SDS011;6689;53.400;12.486;2023-02-18T01:41:01;21.08;;;3.70;;
13244;SDS011;6689;53.400;12.486;2023-02-18T01:43:28;16.20;;;3.53;;
13244;SDS011;6689;53.400;12.486;2023-02-18T01:48:43;15.55;;;3.85;;
13244;SDS011;6689;53.400;12.486;2023-02-18T01:51:13;16.52;;;3.42;;
13244;SDS011;6689;53.400;12.486;2023-02-18T01:53:44;25.17;;;3.40;;
13244;SDS011;6689;53.400;12.486;2023-02-18T01:56:16;17.55;;;3.40;;
13244;SDS011;6689;53.400;12.486;2023-02-18T01:58:49;15.15;;;3.60;;
13244;SDS011;6689;53.400;12.486;2023-02-18T02:01:22;16.08;;;3.38;;
13244;SDS011;6689;53.400;12.486;2023-02-18T02:03:51;19.17;;;3.30;;
13244;SDS011;6689;53.400;12.486;2023-02-18T02:06:19;19.10;;;3.50;;
13244;SDS011;6689;53.400;12.486;2023-02-18T02:08:48;15.70;;;4.07;;
13244;SDS011;6689;53.400;12.486;2023-02-18T02:11:21;15.95;;;5.57;;
13244;SDS011;6689;53.400;12.486;2023-02-18T02:14:02;12.68;;;3.88;;
13244;SDS011;6689;53.400;12.486;2023-02-18T02:16:41;19.88;;;3.67;;
13244;SDS011;6689;53.400;12.486;2023-02-18T02:22:21;18.15;;;4.38;;
13244;SDS011;6689;53.400;12.486;2023-02-18T02:25:18;17.92;;;5.15;;
13244;SDS011;6689;53.400;12.486;2023-02-18T02:31:08;17.73;;;3.15;;
13244;SDS011;6689;53.400;12.486;2023-02-18T02:39:36;12.80;;;3.47;;
13244;SDS011;6689;53.400;12.486;2023-02-18T02:42:14;19.90;;;4.50;;
13244;SDS011;6689;53.400;12.486;2023-02-18T02:44:48;20.63;;;4.13;;
13244;SDS011;6689;53.400;12.486;2023-02-18T02:47:25;25.13;;;3.55;;
13244;SDS011;6689;53.400;12.486;2023-02-18T02:49:59;19.23;;;3.90;;
13244;SDS011;6689;53.400;12.486;2023-02-18T02:52:32;19.80;;;4.22;;
13244;SDS011;6689;53.400;12.486;2023-02-18T02:55:08;15.40;;;5.18;;
13244;SDS011;6689;53.400;12.486;2023-02-18T02:57:41;14.13;;;3.72;;
13244;SDS011;6689;53.400;12.486;2023-02-18T03:00:13;20.33;;;5.18;;
13244;SDS011;6689;53.400;12.486;2023-02-18T03:05:49;22.00;;;4.22;;
13244;SDS011;6689;53.400;12.486;2023-02-18T03:08:31;18.95;;;4.97;;
13244;SDS011;6689;53.400;12.486;2023-02-18T03:11:06;17.83;;;3.92;;
13244;SDS011;6689;53.400;12.486;2023-02-18T03:13:41;18.65;;;4.15;;
13244;SDS011;6689;53.400;12.486;2023-02-18T03:16:19;18.42;;;4.05;;
13244;SDS011;6689;53.400;12.486;2023-02-18T03:18:54;17.17;;;3.60;;
13244;SDS011;6689;53.400;12.486;2023-02-18T03:21:28;18.20;;;4.10;;
13244;SDS011;6689;53.400;12.486;2023-02-18T03:24:00;23.25;;;5.30;;
13244;SDS011;6689;53.400;12.486;2023-02-18T03:26:31;23.55;;;4.43;;
13244;SDS011;6689;53.400;12.486;2023-02-18T03:29:02;15.38;;;3.53;;
13244;SDS011;6689;53.400;12.486;2023-02-18T03:31:33;24.15;;;4.85;;
13244;SDS011;6689;53.400;12.486;2023-02-18T03:34:05;22.67;;;5.35;;
13244;SDS011;6689;53.400;12.486;2023-02-18T03:36:36;24.30;;;6.00;;
13244;SDS011;6689;53.400;12.486;2023-02-18T03:39:06;24.50;;;5.45;;
13244;SDS011;6689;53.400;12.486;2023-02-18T03:41:39;23.30;;;4.50;;
13244;SDS011;6689;53.400;12.486;2023-02-18T03:44:07;16.88;;;3.38;;
13244;SDS011;6689;53.400;12.486;2023-02-18T03:46:36;16.23;;;3.50;;
13244;SDS011;6689;53.400;12.486;2023-02-18T03:49:04;14.07;;;3.63;;
13244;SDS011;6689;53.400;12.486;2023-02-18T03:51:32;27.10;;;5.82;;
13244;SDS011;6689;53.400;12.486;2023-02-18T03:53:59;23.27;;;4.45;;
13244;SDS011;6689;53.400;12.486;2023-02-18T03:56:28;20.38;;;3.38;;
13244;SDS011;6689;53.400;12.486;2023-02-18T03:58:55;11.23;;;3.33;;
13244;SDS011;6689;53.400;12.486;2023-02-18T04:01:25;24.35;;;5.18;;
13244;SDS011;6689;53.400;12.486;2023-02-18T04:03:53;17.80;;;4.95;;
13244;SDS011;6689;53.400;12.486;2023-02-18T04:06:20;22.05;;;4.03;;
13244;SDS011;6689;53.400;12.486;2023-02-18T04:08:48;22.27;;;4.38;;
13244;SDS011;6689;53.400;12.486;2023-02-18T04:11:15;18.63;;;4.07;;
13244;SDS011;6689;53.400;12.486;2023-02-18T04:13:45;24.50;;;8.05;;
13244;SDS011;6689;53.400;12.486;2023-02-18T04:16:12;17.17;;;4.05;;
13244;SDS011;6689;53.400;12.486;2023-02-18T04:18:40;16.13;;;3.22;;
13244;SDS011;6689;53.400;12.486;2023-02-18T04:21:07;14.80;;;3.55;;
13244;SDS011;6689;53.400;12.486;2023-02-18T04:23:35;23.65;;;3.65;;
13244;SDS011;6689;53.400;12.486;2023-02-18T04:26:02;19.35;;;3.70;;
13244;SDS011;6689;53.400;12.486;2023-02-18T04:28:29;28.60;;;5.13;;
13244;SDS011;6689;53.400;12.486;2023-02-18T04:30:58;14.63;;;3.20;;
13244;SDS011;6689;53.400;12.486;2023-02-18T04:33:25;16.10;;;2.97;;
13244;SDS011;6689;53.400;12.486;2023-02-18T04:35:53;18.30;;;3.28;;
13244;SDS011;6689;53.400;12.486;2023-02-18T04:38:20;13.30;;;2.92;;
13244;SDS011;6689;53.400;12.486;2023-02-18T04:40:47;16.52;;;4.28;;
13244;SDS011;6689;53.400;12.486;2023-02-18T04:43:15;23.48;;;4.97;;
13244;SDS011;6689;53.400;12.486;2023-02-18T04:45:42;17.45;;;3.22;;
13244;SDS011;6689;53.400;12.486;2023-02-18T04:48:11;13.40;;;2.95;;
13244;SDS011;6689;53.400;12.486;2023-02-18T04:50:38;17.15;;;2.80;;
13244;SDS011;6689;53.400;12.486;2023-02-18T04:53:05;13.25;;;2.95;;
13244;SDS011;6689;53.400;12.486;2023-02-18T04:55:33;13.85;;;3.17;;
13244;SDS011;6689;53.400;12.486;2023-02-18T04:58:00;13.73;;;2.90;;
13244;SDS011;6689;53.400;12.486;2023-02-18T05:00:27;14.93;;;3.80;;
13244;SDS011;6689;53.400;12.486;2023-02-18T05:02:54;17.67;;;2.97;;
13244;SDS011;6689;53.400;12.486;2023-02-18T05:05:23;17.08;;;4.15;;
13244;SDS011;6689;53.400;12.486;2023-02-18T05:07:52;15.23;;;3.58;;
13244;SDS011;6689;53.400;12.486;2023-02-18T05:10:19;19.70;;;3.38;;
13244;SDS011;6689;53.400;12.486;2023-02-18T05:12:46;18.25;;;4.45;;
13244;SDS011;6689;53.400;12.486;2023-02-18T05:15:14;13.45;;;2.95;;
13244;SDS011;6689;53.400;12.486;2023-02-18T05:17:41;17.67;;;2.85;;
13244;SDS011;6689;53.400;12.486;2023-02-18T05:20:09;15.45;;;3.47;;
13244;SDS011;6689;53.400;12.486;2023-02-18T05:22:39;21.83;;;3.45;;
13244;SDS011;6689;53.400;12.486;2023-02-18T05:25:07;22.23;;;3.75;;
13244;SDS011;6689;53.400;12.486;2023-02-18T05:27:34;20.45;;;3.03;;
13244;SDS011;6689;53.400;12.486;2023-02-18T05:30:01;20.25;;;3.22;;
13244;SDS011;6689;53.400;12.486;2023-02-18T05:32:29;17.48;;;3.42;;
13244;SDS011;6689;53.400;12.486;2023-02-18T05:34:56;20.83;;;2.97;;
13244;SDS011;6689;53.400;12.486;2023-02-18T05:37:24;13.55;;;3.58;;
13244;SDS011;6689;53.400;12.486;2023-02-18T05:39:53;19.95;;;3.72;;
13244;SDS011;6689;53.400;12.486;2023-02-18T05:42:20;10.38;;;2.45;;
13244;SDS011;6689;53.400;12.486;2023-02-18T05:44:47;13.63;;;3.97;;
13244;SDS011;6689;53.400;12.486;2023-02-18T05:47:16;12.63;;;2.78;;
13244;SDS011;6689;53.400;12.486;2023-02-18T05:49:43;21.88;;;5.07;;
13244;SDS011;6689;53.400;12.486;2023-02-18T05:52:11;11.88;;;2.92;;
13244;SDS011;6689;53.400;12.486;2023-02-18T05:54:38;14.13;;;2.90;;
13244;SDS011;6689;53.400;12.486;2023-02-18T05:57:07;13.30;;;2.75;;
13244;SDS011;6689;53.400;12.486;2023-02-18T05:59:34;13.25;;;2.60;;
13244;SDS011;6689;53.400;12.486;2023-02-18T06:02:02;12.85;;;2.80;;
13244;SDS011;6689;53.400;12.486;2023-02-18T06:04:29;13.70;;;2.97;;
13244;SDS011;6689;53.400;12.486;2023-02-18T06:06:56;11.88;;;2.40;;
13244;SDS011;6689;53.400;12.486;2023-02-18T06:09:24;11.68;;;2.83;;
13244;SDS011;6689;53.400;12.486;2023-02-18T06:11:51;12.40;;;2.15;;
13244;SDS011;6689;53.400;12.486;2023-02-18T06:14:19;10.40;;;2.30;;
13244;SDS011;6689;53.400;12.486;2023-02-18T06:16:47;15.05;;;2.28;;
13244;SDS011;6689;53.400;12.486;2023-02-18T06:19:14;8.38;;;2.20;;
13244;SDS011;6689;53.400;12.486;2023-02-18T06:21:41;10.23;;;2.40;;
13244;SDS011;6689;53.400;12.486;2023-02-18T06:24:09;14.43;;;2.10;;
13244;SDS011;6689;53.400;12.486;2023-02-18T06:26:36;6.82;;;1.98;;
13244;SDS011;6689;53.400;12.486;2023-02-18T06:29:03;9.30;;;1.58;;
13244;SDS011;6689;53.400;12.486;2023-02-18T06:31:35;7.63;;;1.85;;
13244;SDS011;6689;53.400;12.486;2023-02-18T06:34:02;13.40;;;2.95;;
13244;SDS011;6689;53.400;12.486;2023-02-18T06:36:29;13.65;;;2.33;;
13244;SDS011;6689;53.400;12.486;2023-02-18T06:38:57;10.85;;;2.30;;
13244;SDS011;6689;53.400;12.486;2023-02-18T06:41:24;7.10;;;2.08;;
13244;SDS011;6689;53.400;12.486;2023-02-18T06:43:51;14.20;;;2.22;;
13244;SDS011;6689;53.400;12.486;2023-02-18T06:46:19;11.07;;;2.40;;
13244;SDS011;6689;53.400;12.486;2023-02-18T06:48:48;10.35;;;2.40;;
13244;SDS011;6689;53.400;12.486;2023-02-18T06:51:15;12.23;;;3.17;;
13244;SDS011;6689;53.400;12.486;2023-02-18T06:53:44;9.07;;;1.85;;
13244;SDS011;6689;53.400;12.486;2023-02-18T06:56:11;8.18;;;2.10;;
13244;SDS011;6689;53.400;12.486;2023-02-18T06:58:39;8.15;;;2.22;;
13244;SDS011;6689;53.400;12.486;2023-02-18T07:01:06;10.50;;;1.45;;
13244;SDS011;6689;53.400;12.486;2023-02-18T07:03:33;15.13;;;2.60;;
13244;SDS011;6689;53.400;12.486;2023-02-18T07:06:02;6.97;;;1.90;;
13244;SDS011;6689;53.400;12.486;2023-02-18T07:08:30;6.28;;;2.50;;
13244;SDS011;6689;53.400;12.486;2023-02-18T07:11:01;5.80;;;1.30;;
13244;SDS011;6689;53.400;12.486;2023-02-18T07:13:29;8.88;;;1.90;;
13244;SDS011;6689;53.400;12.486;2023-02-18T07:15:56;9.25;;;2.20;;
13244;SDS011;6689;53.400;12.486;2023-02-18T07:18:23;8.32;;;1.70;;
13244;SDS011;6689;53.400;12.486;2023-02-18T07:20:51;9.10;;;2.13;;
13244;SDS011;6689;53.400;12.486;2023-02-18T07:23:19;11.38;;;1.70;;
13244;SDS011;6689;53.400;12.486;2023-02-18T07:25:46;10.43;;;2.40;;
13244;SDS011;6689;53.400;12.486;2023-02-18T07:28:14;7.40;;;1.92;;
13244;SDS011;6689;53.400;12.486;2023-02-18T07:30:44;9.07;;;2.00;;
13244;SDS011;6689;53.400;12.486;2023-02-18T07:33:12;11.60;;;2.40;;
13244;SDS011;6689;53.400;12.486;2023-02-18T07:35:39;7.80;;;2.53;;
13244;SDS011;6689;53.400;12.486;2023-02-18T07:38:06;10.43;;;2.70;;
13244;SDS011;6689;53.400;12.486;2023-02-18T07:40:37;7.15;;;1.90;;
13244;SDS011;6689;53.400;12.486;2023-02-18T07:43:04;8.63;;;2.42;;
13244;SDS011;6689;53.400;12.486;2023-02-18T07:45:33;7.93;;;1.60;;
13244;SDS011;6689;53.400;12.486;2023-02-18T07:48:03;15.82;;;2.25;;
13244;SDS011;6689;53.400;12.486;2023-02-18T07:50:30;11.68;;;2.00;;
13244;SDS011;6689;53.400;12.486;2023-02-18T07:53:01;6.30;;;2.25;;
13244;SDS011;6689;53.400;12.486;2023-02-18T07:55:30;8.50;;;1.80;;
13244;SDS011;6689;53.400;12.486;2023-02-18T07:58:12;7.45;;;1.98;;
13244;SDS011;6689;53.400;12.486;2023-02-18T08:00:40;10.80;;;1.83;;
13244;SDS011;6689;53.400;12.486;2023-02-18T08:03:07;16.67;;;3.08;;
13244;SDS011;6689;53.400;12.486;2023-02-18T08:05:35;9.45;;;1.98;;
13244;SDS011;6689;53.400;12.486;2023-02-18T08:08:02;10.43;;;2.75;;
13244;SDS011;6689;53.400;12.486;2023-02-18T08:10:30;8.40;;;2.80;;
13244;SDS011;6689;53.400;12.486;2023-02-18T08:12:57;5.95;;;2.13;;
13244;SDS011;6689;53.400;12.486;2023-02-18T08:15:26;8.35;;;2.00;;
13244;SDS011;6689;53.400;12.486;2023-02-18T08:17:54;7.80;;;1.88;;
13244;SDS011;6689;53.400;12.486;2023-02-18T08:20:21;9.15;;;1.92;;
13244;SDS011;6689;53.400;12.486;2023-02-18T08:22:48;10.20;;;2.30;;
13244;SDS011;6689;53.400;12.486;2023-02-18T08:25:16;9.90;;;2.97;;
13244;SDS011;6689;53.400;12.486;2023-02-18T08:27:44;11.63;;;2.60;;
13244;SDS011;6689;53.400;12.486;2023-02-18T08:30:11;8.02;;;1.92;;
13244;SDS011;6689;53.400;12.486;2023-02-18T08:32:40;9.50;;;2.80;;
13244;SDS011;6689;53.400;12.486;2023-02-18T08:35:09;10.98;;;2.45;;
13244;SDS011;6689;53.400;12.486;2023-02-18T08:37:37;9.73;;;1.98;;
13244;SDS011;6689;53.400;12.486;2023-02-18T08:40:05;9.55;;;1.80;;
13244;SDS011;6689;53.400;12.486;2023-02-18T08:42:33;9.50;;;2.00;;
13244;SDS011;6689;53.400;12.486;2023-02-18T08:45:00;8.25;;;2.63;;
13244;SDS011;6689;53.400;12.486;2023-02-18T08:47:28;4.10;;;1.80;;
13244;SDS011;6689;53.400;12.486;2023-02-18T08:49:57;9.70;;;2.22;;
13244;SDS011;6689;53.400;12.486;2023-02-18T08:52:24;6.10;;;1.92;;
13244;SDS011;6689;53.400;12.486;2023-02-18T08:54:54;7.68;;;1.83;;
13244;SDS011;6689;53.400;12.486;2023-02-18T08:57:22;9.65;;;2.38;;
13244;SDS011;6689;53.400;12.486;2023-02-18T08:59:49;17.95;;;2.15;;
13244;SDS011;6689;53.400;12.486;2023-02-18T09:02:19;10.63;;;1.95;;
13244;SDS011;6689;53.400;12.486;2023-02-18T09:04:46;8.68;;;2.28;;
13244;SDS011;6689;53.400;12.486;2023-02-18T09:07:15;8.48;;;2.13;;
13244;SDS011;6689;53.400;12.486;2023-02-18T09:09:43;8.35;;;2.00;;
13244;SDS011;6689;53.400;12.486;2023-02-18T09:12:11;11.95;;;2.58;;
13244;SDS011;6689;53.400;12.486;2023-02-18T09:14:38;14.57;;;2.10;;
13244;SDS011;6689;53.400;12.486;2023-02-18T09:17:06;11.52;;;2.08;;
13244;SDS011;6689;53.400;12.486;2023-02-18T09:19:33;4.50;;;1.42;;
13244;SDS011;6689;53.400;12.486;2023-02-18T09:22:00;8.52;;;1.50;;
13244;SDS011;6689;53.400;12.486;2023-02-18T09:24:29;5.90;;;1.20;;
13244;SDS011;6689;53.400;12.486;2023-02-18T09:26:56;7.68;;;2.15;;
13244;SDS011;6689;53.400;12.486;2023-02-18T09:29:24;10.65;;;2.22;;
13244;SDS011;6689;53.400;12.486;2023-02-18T09:31:51;9.85;;;1.75;;
13244;SDS011;6689;53.400;12.486;2023-02-18T09:34:19;5.68;;;1.65;;
13244;SDS011;6689;53.400;12.486;2023-02-18T09:36:46;10.07;;;2.25;;
13244;SDS011;6689;53.400;12.486;2023-02-18T09:39:13;12.32;;;1.80;;
13244;SDS011;6689;53.400;12.486;2023-02-18T09:41:44;8.30;;;1.88;;
13244;SDS011;6689;53.400;12.486;2023-02-18T09:44:15;8.95;;;2.28;;
13244;SDS011;6689;53.400;12.486;2023-02-18T09:46:48;6.80;;;1.80;;
13244;SDS011;6689;53.400;12.486;2023-02-18T09:49:19;6.07;;;1.67;;
13244;SDS011;6689;53.400;12.486;2023-02-18T09:51:54;7.45;;;1.83;;
13244;SDS011;6689;53.400;12.486;2023-02-18T09:54:26;9.45;;;1.65;;
13244;SDS011;6689;53.400;12.486;2023-02-18T09:56:55;8.73;;;2.40;;
13244;SDS011;6689;53.400;12.486;2023-02-18T09:59:24;8.02;;;1.55;;
13244;SDS011;6689;53.400;12.486;2023-02-18T10:01:52;9.80;;;1.70;;
13244;SDS011;6689;53.400;12.486;2023-02-18T10:04:22;9.90;;;2.10;;
13244;SDS011;6689;53.400;12.486;2023-02-18T10:06:57;7.10;;;2.45;;
13244;SDS011;6689;53.400;12.486;2023-02-18T10:09:28;8.73;;;1.63;;
13244;SDS011;6689;53.400;12.486;2023-02-18T10:12:06;7.82;;;1.58;;
13244;SDS011;6689;53.400;12.486;2023-02-18T10:14:39;9.38;;;1.80;;
13244;SDS011;6689;53.400;12.486;2023-02-18T10:17:09;10.57;;;2.03;;
13244;SDS011;6689;53.400;12.486;2023-02-18T10:19:47;7.55;;;1.27;;
13244;SDS011;6689;53.400;12.486;2023-02-18T10:22:16;5.97;;;1.65;;
13244;SDS011;6689;53.400;12.486;2023-02-18T10:24:45;5.95;;;2.20;;
13244;SDS011;6689;53.400;12.486;2023-02-18T10:27:18;5.40;;;1.60;;
13244;SDS011;6689;53.400;12.486;2023-02-18T10:29:53;7.40;;;1.42;;
13244;SDS011;6689;53.400;12.486;2023-02-18T10:32:23;5.90;;;1.58;;
13244;SDS011;6689;53.400;12.486;2023-02-18T10:34:53;6.70;;;1.85;;
13244;SDS011;6689;53.400;12.486;2023-02-18T10:37:37;5.30;;;1.60;;
13244;SDS011;6689;53.400;12.486;2023-02-18T10:40:16;4.57;;;1.27;;
13244;SDS011;6689;53.400;12.486;2023-02-18T10:42:56;3.42;;;1.58;;
13244;SDS011;6689;53.400;12.486;2023-02-18T10:45:32;4.70;;;1.30;;
13244;SDS011;6689;53.400;12.486;2023-02-18T10:48:09;5.93;;;1.55;;
13244;SDS011;6689;53.400;12.486;2023-02-18T10:50:56;3.55;;;1.27;;
13244;SDS011;6689;53.400;12.486;2023-02-18T10:53:30;5.60;;;0.90;;
13244;SDS011;6689;53.400;12.486;2023-02-18T10:55:59;3.47;;;1.00;;
13244;SDS011;6689;53.400;12.486;2023-02-18T10:58:31;5.85;;;1.10;;
13244;SDS011;6689;53.400;12.486;2023-02-18T11:01:00;3.28;;;0.80;;
13244;SDS011;6689;53.400;12.486;2023-02-18T11:03:41;1.83;;;0.90;;
13244;SDS011;6689;53.400;12.486;2023-02-18T11:06:14;1.17;;;0.75;;
13244;SDS011;6689;53.400;12.486;2023-02-18T11:08:45;5.85;;;1.20;;
13244;SDS011;6689;53.400;12.486;2023-02-18T11:11:15;4.03;;;0.90;;
13244;SDS011;6689;53.400;12.486;2023-02-18T11:13:46;3.10;;;0.70;;
13244;SDS011;6689;53.400;12.486;2023-02-18T11:16:20;2.75;;;1.02;;
13244;SDS011;6689;53.400;12.486;2023-02-18T11:18:48;1.42;;;0.90;;
13244;SDS011;6689;53.400;12.486;2023-02-18T11:21:25;2.97;;;1.23;;
13244;SDS011;6689;53.400;12.486;2023-02-18T11:23:55;1.98;;;1.20;;
13244;SDS011;6689;53.400;12.486;2023-02-18T11:26:32;3.35;;;1.00;;
13244;SDS011;6689;53.400;12.486;2023-02-18T11:29:04;1.98;;;0.90;;
13244;SDS011;6689;53.400;12.486;2023-02-18T11:31:38;2.38;;;0.88;;
13244;SDS011;6689;53.400;12.486;2023-02-18T11:34:12;2.10;;;0.82;;
13244;SDS011;6689;53.400;12.486;2023-02-18T11:36:42;1.13;;;0.60;;
13244;SDS011;6689;53.400;12.486;2023-02-18T11:39:15;1.65;;;0.80;;
13244;SDS011;6689;53.400;12.486;2023-02-18T11:41:46;0.98;;;0.77;;
13244;SDS011;6689;53.400;12.486;2023-02-18T11:44:19;2.28;;;1.30;;
13244;SDS011;6689;53.400;12.486;2023-02-18T11:47:02;2.22;;;1.00;;
13244;SDS011;6689;53.400;12.486;2023-02-18T11:49:31;1.65;;;0.85;;
13244;SDS011;6689;53.400;12.486;2023-02-18T11:52:04;2.45;;;0.93;;
13244;SDS011;6689;53.400;12.486;2023-02-18T11:54:41;2.17;;;1.10;;
13244;SDS011;6689;53.400;12.486;2023-02-18T11:57:09;1.35;;;0.77;;
13244;SDS011;6689;53.400;12.486;2023-02-18T11:59:40;2.63;;;0.80;;
13244;SDS011;6689;53.400;12.486;2023-02-18T12:02:12;1.30;;;0.68;;
13244;SDS011;6689;53.400;12.486;2023-02-18T12:07:25;1.48;;;0.82;;
13244;SDS011;6689;53.400;12.486;2023-02-18T12:09:57;1.20;;;0.75;;
13244;SDS011;6689;53.400;12.486;2023-02-18T12:12:30;1.30;;;0.90;;
13244;SDS011;6689;53.400;12.486;2023-02-18T12:15:03;1.98;;;0.90;;
13244;SDS011;6689;53.400;12.486;2023-02-18T12:20:38;4.82;;;3.47;;
13244;SDS011;6689;53.400;12.486;2023-02-18T12:23:25;3.20;;;2.08;;
13244;SDS011;6689;53.400;12.486;2023-02-18T12:26:02;9.02;;;6.72;;
13244;SDS011;6689;53.400;12.486;2023-02-18T12:28:43;1.67;;;0.98;;
13244;SDS011;6689;53.400;12.486;2023-02-18T12:31:24;12.73;;;7.63;;
13244;SDS011;6689;53.400;12.486;2023-02-18T12:34:06;3.15;;;1.75;;
13244;SDS011;6689;53.400;12.486;2023-02-18T12:36:49;14.88;;;8.00;;
13244;SDS011;6689;53.400;12.486;2023-02-18T12:39:30;6.68;;;3.35;;
13244;SDS011;6689;53.400;12.486;2023-02-18T12:42:12;2.47;;;1.50;;
13244;SDS011;6689;53.400;12.486;2023-02-18T12:44:55;1.08;;;0.82;;
13244;SDS011;6689;53.400;12.486;2023-02-18T12:47:45;5.47;;;1.50;;
13244;SDS011;6689;53.400;12.486;2023-02-18T12:53:23;3.70;;;2.42;;
13244;SDS011;6689;53.400;12.486;2023-02-18T12:56:29;4.20;;;1.83;;
13244;SDS011;6689;53.400;12.486;2023-02-18T12:59:06;5.28;;;3.28;;
13244;SDS011;6689;53.400;12.486;2023-02-18T13:01:45;1.02;;;0.73;;
13244;SDS011;6689;53.400;12.486;2023-02-18T13:07:23;10.32;;;8.45;;
13244;SDS011;6689;53.400;12.486;2023-02-18T13:13:08;23.05;;;15.02;;
13244;SDS011;6689;53.400;12.486;2023-02-18T13:15:40;3.30;;;2.58;;
13244;SDS011;6689;53.400;12.486;2023-02-18T13:18:13;20.50;;;14.07;;
13244;SDS011;6689;53.400;12.486;2023-02-18T13:20:48;11.90;;;9.95;;
13244;SDS011;6689;53.400;12.486;2023-02-18T13:23:20;13.05;;;9.60;;
13244;SDS011;6689;53.400;12.486;2023-02-18T13:25:55;16.48;;;12.10;;
13244;SDS011;6689;53.400;12.486;2023-02-18T13:28:28;22.23;;;17.73;;
13244;SDS011;6689;53.400;12.486;2023-02-18T13:31:04;5.93;;;4.38;;
13244;SDS011;6689;53.400;12.486;2023-02-18T13:33:43;4.35;;;2.78;;
13244;SDS011;6689;53.400;12.486;2023-02-18T13:36:21;4.80;;;3.22;;
13244;SDS011;6689;53.400;12.486;2023-02-18T13:39:02;2.80;;;1.00;;
13244;SDS011;6689;53.400;12.486;2023-02-18T13:41:35;1.30;;;1.00;;
13244;SDS011;6689;53.400;12.486;2023-02-18T13:44:08;2.10;;;1.00;;
13244;SDS011;6689;53.400;12.486;2023-02-18T13:46:58;1.45;;;0.90;;
13244;SDS011;6689;53.400;12.486;2023-02-18T13:49:26;3.25;;;1.05;;
13244;SDS011;6689;53.400;12.486;2023-02-18T13:51:59;3.78;;;0.90;;
13244;SDS011;6689;53.400;12.486;2023-02-18T13:54:29;2.10;;;1.40;;
13244;SDS011;6689;53.400;12.486;2023-02-18T13:56:59;2.40;;;1.00;;
13244;SDS011;6689;53.400;12.486;2023-02-18T13:59:30;1.20;;;0.90;;
13244;SDS011;6689;53.400;12.486;2023-02-18T14:02:27;1.30;;;0.70;;
13244;SDS011;6689;53.400;12.486;2023-02-18T14:04:57;1.00;;;0.80;;
13244;SDS011;6689;53.400;12.486;2023-02-18T14:07:48;1.10;;;0.52;;
13244;SDS011;6689;53.400;12.486;2023-02-18T14:10:24;0.63;;;0.50;;
13244;SDS011;6689;53.400;12.486;2023-02-18T14:13:01;0.50;;;0.50;;
13244;SDS011;6689;53.400;12.486;2023-02-18T14:15:51;0.55;;;0.40;;
13244;SDS011;6689;53.400;12.486;2023-02-18T14:18:25;0.85;;;0.50;;
13244;SDS011;6689;53.400;12.486;2023-02-18T14:21:04;0.85;;;0.60;;
13244;SDS011;6689;53.400;12.486;2023-02-18T14:23:58;0.80;;;0.60;;
13244;SDS011;6689;53.400;12.486;2023-02-18T14:26:31;1.42;;;0.70;;
13244;SDS011;6689;53.400;12.486;2023-02-18T14:29:02;1.23;;;0.65;;
13244;SDS011;6689;53.400;12.486;2023-02-18T14:31:40;2.55;;;0.80;;
13244;SDS011;6689;53.400;12.486;2023-02-18T14:40:22;10.85;;;6.40;;
13244;SDS011;6689;53.400;12.486;2023-02-18T14:42:59;10.60;;;6.85;;
13244;SDS011;6689;53.400;12.486;2023-02-18T14:45:34;14.27;;;7.78;;
13244;SDS011;6689;53.400;12.486;2023-02-18T14:48:29;25.13;;;15.45;;
13244;SDS011;6689;53.400;12.486;2023-02-18T14:51:08;11.13;;;8.15;;
13244;SDS011;6689;53.400;12.486;2023-02-18T14:53:39;7.50;;;4.82;;
13244;SDS011;6689;53.400;12.486;2023-02-18T14:56:11;8.90;;;5.55;;
13244;SDS011;6689;53.400;12.486;2023-02-18T14:58:40;18.15;;;11.82;;
13244;SDS011;6689;53.400;12.486;2023-02-18T15:01:17;0.98;;;0.73;;
13244;SDS011;6689;53.400;12.486;2023-02-18T15:03:46;4.00;;;2.42;;
13244;SDS011;6689;53.400;12.486;2023-02-18T15:06:25;1.25;;;0.82;;
13244;SDS011;6689;53.400;12.486;2023-02-18T15:08:55;4.78;;;2.63;;
13244;SDS011;6689;53.400;12.486;2023-02-18T15:11:29;1.77;;;1.10;;
13244;SDS011;6689;53.400;12.486;2023-02-18T15:14:03;1.75;;;0.90;;
13244;SDS011;6689;53.400;12.486;2023-02-18T15:16:36;1.95;;;0.80;;
13244;SDS011;6689;53.400;12.486;2023-02-18T15:19:06;0.20;;;0.20;;
13244;SDS011;6689;53.400;12.486;2023-02-18T15:21:41;1.10;;;0.35;;
13244;SDS011;6689;53.400;12.486;2023-02-18T15:24:13;1.63;;;0.60;;
13244;SDS011;6689;53.400;12.486;2023-02-18T15:26:50;2.20;;;0.80;;
13244;SDS011;6689;53.400;12.486;2023-02-18T15:29:21;1.67;;;0.95;;
13244;SDS011;6689;53.400;12.486;2023-02-18T15:31:50;2.30;;;0.80;;
13244;SDS011;6689;53.400;12.486;2023-02-18T15:37:03;1.63;;;1.08;;
13244;SDS011;6689;53.400;12.486;2023-02-18T15:39:34;1.50;;;0.63;;
13244;SDS011;6689;53.400;12.486;2023-02-18T15:42:07;2.65;;;0.90;;
13244;SDS011;6689;53.400;12.486;2023-02-18T15:44:43;1.25;;;1.02;;
13244;SDS011;6689;53.400;12.486;2023-02-18T15:47:12;7.65;;;2.78;;
13244;SDS011;6689;53.400;12.486;2023-02-18T15:49:45;6.20;;;2.50;;